createdAt,value
2022-10-19T00:02:17.605Z,98405.25
2022-10-19T00:04:44.622Z,98406.25
2022-10-19T00:07:11.090Z,98400.88
2022-10-19T00:09:37.595Z,98411.28
2022-10-19T00:12:04.189Z,98414.75
2022-10-19T00:14:30.693Z,98415.63
2022-10-19T00:16:58.164Z,98405.38
2022-10-19T00:19:25.741Z,98414.81
2022-10-19T00:21:52.438Z,98408.75
2022-10-19T00:24:18.973Z,98395.75
2022-10-19T00:26:45.463Z,98409.63
2022-10-19T00:29:12.666Z,98410.50
2022-10-19T00:31:39.429Z,98419.88
2022-10-19T00:34:05.895Z,98425.88
2022-10-19T00:36:37.415Z,98424.22
2022-10-19T00:39:04.710Z,98429.34
2022-10-19T00:41:32.206Z,98428.44
2022-10-19T00:44:00.717Z,98429.34
2022-10-19T00:46:28.526Z,98431.91
2022-10-19T00:49:01.227Z,98431.03
2022-10-19T00:51:28.300Z,98436.16
2022-10-19T00:53:55.456Z,98436.09
2022-10-19T00:56:21.927Z,98436.88
2022-10-19T00:58:48.474Z,98439.50
2022-10-19T01:01:16.933Z,98436.16
2022-10-19T01:03:43.718Z,98430.91
2022-10-19T01:06:10.205Z,98450.72
2022-10-19T01:08:36.730Z,98428.44
2022-10-19T01:11:21.207Z,98432.75
2022-10-19T01:14:09.420Z,98313.25
2022-10-19T01:17:07.148Z,98420.75
2022-10-19T01:19:42.699Z,98417.31
2022-10-19T01:22:16.906Z,98418.19
2022-10-19T01:27:48.718Z,98422.44
2022-10-19T01:30:52.343Z,98417.31
2022-10-19T01:33:37.065Z,98412.19
2022-10-19T01:36:15.685Z,98413.91
2022-10-19T01:39:16.276Z,98407.88
2022-10-19T01:42:02.116Z,98407.00
2022-10-19T01:44:35.523Z,98408.72
2022-10-19T01:47:07.215Z,98408.72
2022-10-19T01:49:57.399Z,98399.31
2022-10-19T01:52:23.897Z,98406.94
2022-10-19T01:54:52.258Z,98397.47
2022-10-19T01:57:22.055Z,98388.78
2022-10-19T01:59:48.628Z,98405.25
2022-10-19T02:02:15.144Z,98408.72
2022-10-19T02:04:41.630Z,98402.53
2022-10-19T02:07:08.143Z,98394.91
2022-10-19T02:09:34.686Z,98398.44
2022-10-19T02:12:03.520Z,98400.19
2022-10-19T02:14:32.955Z,98394.16
2022-10-19T02:17:03.784Z,98392.50
2022-10-19T02:19:30.312Z,98376.84
2022-10-19T02:21:56.890Z,98378.72
2022-10-19T02:24:23.394Z,98377.72
2022-10-19T02:26:50.186Z,98380.56
2022-10-19T02:29:16.686Z,98377.97
2022-10-19T02:31:43.317Z,98380.50
2022-10-19T02:34:09.787Z,98369.41
2022-10-19T02:36:36.279Z,98377.97
2022-10-19T02:39:02.847Z,98374.53
2022-10-19T02:41:38.651Z,98344.97
2022-10-19T02:44:15.094Z,98353.72
2022-10-19T02:46:44.293Z,98365.16
2022-10-19T02:49:10.770Z,98362.59
2022-10-19T02:51:38.917Z,98370.28
2022-10-19T02:54:06.331Z,98357.41
2022-10-19T02:56:33.723Z,98366.00
2022-10-19T02:59:00.506Z,98369.47
2022-10-19T03:01:27.160Z,98362.53
2022-10-19T03:03:53.655Z,98366.91
2022-10-19T03:06:20.113Z,98365.16
2022-10-19T03:08:46.832Z,98363.44
2022-10-19T03:11:13.311Z,98360.03
2022-10-19T03:13:41.512Z,98356.53
2022-10-19T03:16:11.928Z,98351.50
2022-10-19T03:18:38.593Z,98343.75
2022-10-19T03:21:06.863Z,98348.06
2022-10-19T03:23:33.470Z,98353.19
2022-10-19T03:26:00.021Z,98353.19
2022-10-19T03:28:26.542Z,98342.94
2022-10-19T03:30:53.052Z,98333.25
2022-10-19T03:33:19.623Z,98347.22
2022-10-19T03:35:46.192Z,98346.25
2022-10-19T03:38:12.685Z,98338.63
2022-10-19T03:40:39.588Z,98342.94
2022-10-19T03:43:06.064Z,98334.28
2022-10-19T03:45:32.624Z,98343.81
2022-10-19T03:47:59.136Z,98351.50
2022-10-19T03:50:25.656Z,98339.47
2022-10-19T03:52:52.208Z,98339.50
2022-10-19T03:55:18.791Z,98237.94
2022-10-19T03:57:45.279Z,98342.06
2022-10-19T04:00:12.496Z,98345.50
2022-10-19T04:02:38.983Z,98357.47
2022-10-19T04:05:06.139Z,98356.63
2022-10-19T04:07:32.874Z,98352.28
2022-10-19T04:09:59.578Z,98353.19
2022-10-19T04:12:26.067Z,98340.25
2022-10-19T04:14:57.226Z,98336.75
2022-10-19T04:17:24.650Z,98342.03
2022-10-19T04:19:51.160Z,98354.00
2022-10-19T04:22:17.624Z,98346.31
2022-10-19T04:24:44.167Z,98349.72
2022-10-19T04:27:10.646Z,98357.41
2022-10-19T04:29:37.103Z,98354.00
2022-10-19T04:32:03.590Z,98359.16
2022-10-19T04:34:30.110Z,98361.72
2022-10-19T04:36:59.477Z,98352.28
2022-10-19T04:39:26.120Z,98361.72
2022-10-19T04:41:52.747Z,98356.56
2022-10-19T04:44:19.263Z,98360.81
2022-10-19T04:46:45.803Z,98361.72
2022-10-19T04:49:15.201Z,98358.25
2022-10-19T04:51:44.478Z,98362.59
2022-10-19T04:54:10.954Z,98356.56
2022-10-19T04:56:37.432Z,98360.03
2022-10-19T04:59:03.959Z,98360.03
2022-10-19T05:01:30.919Z,98360.78
2022-10-19T05:03:58.958Z,98365.97
2022-10-19T05:06:25.605Z,98359.00
2022-10-19T05:08:52.174Z,98350.41
2022-10-19T05:11:19.352Z,98353.00
2022-10-19T05:13:45.949Z,98359.19
2022-10-19T05:16:19.782Z,98351.41
2022-10-19T05:18:50.054Z,98354.13
2022-10-19T05:21:16.689Z,98359.25
2022-10-19T05:23:43.212Z,98353.25
2022-10-19T05:26:11.533Z,98342.72
2022-10-19T05:28:38.212Z,98352.38
2022-10-19T05:31:15.045Z,98347.16
2022-10-19T05:33:41.912Z,98360.88
2022-10-19T05:36:18.669Z,98354.00
2022-10-19T05:38:45.965Z,98344.53
2022-10-19T05:41:12.842Z,98352.22
2022-10-19T05:43:40.110Z,98350.56
2022-10-19T05:46:08.694Z,98348.84
2022-10-19T05:48:35.563Z,98358.25
2022-10-19T05:51:02.461Z,98361.66
2022-10-19T05:53:29.257Z,98359.97
2022-10-19T05:55:56.059Z,98364.22
2022-10-19T05:58:22.638Z,98359.09
2022-10-19T06:00:53.531Z,98358.22
2022-10-19T06:03:20.291Z,98352.22
2022-10-19T06:05:46.758Z,98353.88
2022-10-19T06:08:13.215Z,98349.66
2022-10-19T06:10:39.756Z,98347.81
2022-10-19T06:13:06.242Z,98351.25
2022-10-19T06:15:34.115Z,98356.53
2022-10-19T06:18:00.600Z,98357.34
2022-10-19T06:20:29.351Z,98356.53
2022-10-19T06:22:55.856Z,98361.56
2022-10-19T06:25:22.395Z,98359.09
2022-10-19T06:27:48.945Z,98359.97
2022-10-19T06:30:15.601Z,98367.66
2022-10-19T06:32:42.140Z,98355.44
2022-10-19T06:35:08.759Z,98364.22
2022-10-19T06:37:35.538Z,98373.66
2022-10-19T06:40:06.181Z,98371.09
2022-10-19T06:42:33.802Z,98367.63
2022-10-19T06:45:00.312Z,98355.56
2022-10-19T06:47:31.351Z,98370.22
2022-10-19T06:49:57.980Z,98358.91
2022-10-19T06:52:24.480Z,98371.97
2022-10-19T06:54:50.951Z,98366.84
2022-10-19T06:57:17.428Z,98365.09
2022-10-19T06:59:43.931Z,98369.34
2022-10-19T07:02:11.613Z,98370.22
2022-10-19T07:04:38.090Z,98368.53
2022-10-19T07:07:04.702Z,98353.66
2022-10-19T07:09:31.207Z,98368.38
2022-10-19T07:11:57.679Z,98378.78
2022-10-19T07:14:28.558Z,98377.09
2022-10-19T07:16:55.414Z,98380.50
2022-10-19T07:19:22.256Z,98373.66
2022-10-19T07:21:52.323Z,98371.78
2022-10-19T07:24:19.126Z,98384.78
2022-10-19T07:26:45.746Z,98369.03
2022-10-19T07:29:12.252Z,98388.25
2022-10-19T07:31:38.813Z,98388.25
2022-10-19T07:34:05.782Z,98385.69
2022-10-19T07:36:33.726Z,98381.41
2022-10-19T07:39:05.404Z,98382.28
2022-10-19T07:41:31.955Z,98374.47
2022-10-19T07:43:58.503Z,98377.97
2022-10-19T07:46:27.132Z,98382.28
2022-10-19T07:48:53.813Z,98378.84
2022-10-19T07:51:20.450Z,98371.91
2022-10-19T07:53:47.131Z,98378.84
2022-10-19T07:56:21.099Z,98380.44
2022-10-19T07:58:47.711Z,98382.28
2022-10-19T08:01:16.372Z,98389.97
2022-10-19T08:04:31.773Z,98390.88
2022-10-19T08:06:29.540Z,98390.03
2022-10-19T08:08:56.418Z,98385.72
2022-10-19T08:11:27.643Z,98393.44
2022-10-19T08:13:54.187Z,98390.81
2022-10-19T08:16:26.883Z,98395.16
2022-10-19T08:18:55.624Z,98403.63
2022-10-19T08:21:22.152Z,98395.88
2022-10-19T08:23:48.784Z,98397.72
2022-10-19T08:26:15.268Z,98399.41
2022-10-19T08:28:41.806Z,98400.28
2022-10-19T08:31:22.037Z,98393.47
2022-10-19T08:33:51.618Z,98402.88
2022-10-19T08:36:19.665Z,98397.72
2022-10-19T08:38:48.355Z,98392.59
2022-10-19T08:44:24.279Z,98405.44
2022-10-19T08:47:01.454Z,98395.06
2022-10-19T08:49:30.104Z,98389.72
2022-10-19T08:51:58.687Z,98391.56
2022-10-19T08:54:28.618Z,98398.50
2022-10-19T08:57:05.362Z,98393.47
2022-10-19T08:59:44.541Z,98392.59
2022-10-19T09:02:16.576Z,98385.63
2022-10-19T09:04:47.328Z,98386.59
2022-10-19T09:07:31.161Z,98383.97
2022-10-19T09:10:02.623Z,98389.97
2022-10-19T09:12:40.111Z,98380.44
2022-10-19T09:15:10.467Z,98389.97
2022-10-19T09:17:36.955Z,98382.19
2022-10-19T09:20:19.586Z,98387.41
2022-10-19T09:22:46.251Z,98389.09
2022-10-19T09:25:20.478Z,98390.81
2022-10-19T09:27:57.144Z,98383.84
2022-10-19T09:30:23.703Z,98385.69
2022-10-19T09:32:55.403Z,98389.88
2022-10-19T09:35:34.196Z,98370.66
2022-10-19T09:38:00.725Z,98410.50
2022-10-19T09:40:28.988Z,98397.69
2022-10-19T09:42:58.439Z,98397.69
2022-10-19T09:45:49.257Z,98399.34
2022-10-19T09:48:24.741Z,98401.13
2022-10-19T09:50:54.313Z,98391.34
2022-10-19T09:53:21.076Z,98394.16
2022-10-19T09:55:51.370Z,98386.16
2022-10-19T09:58:19.055Z,98401.91
2022-10-19T10:00:50.639Z,98402.81
2022-10-19T10:03:32.236Z,98403.69
2022-10-19T10:06:02.069Z,98401.13
2022-10-19T10:08:30.876Z,98405.44
2022-10-19T10:11:16.367Z,98407.09
2022-10-19T10:13:43.976Z,98407.09
2022-10-19T10:16:14.020Z,98391.56
2022-10-19T10:18:49.617Z,98399.41
2022-10-19T10:21:26.959Z,98401.97
2022-10-19T10:24:05.460Z,98401.19
2022-10-19T10:26:32.563Z,98395.16
2022-10-19T10:29:01.378Z,98396.84
2022-10-19T10:31:28.892Z,98384.03
2022-10-19T10:34:10.842Z,98361.34
2022-10-19T10:36:51.567Z,98378.09
2022-10-19T10:39:18.069Z,98379.81
2022-10-19T10:41:44.927Z,98361.66
2022-10-19T10:44:16.900Z,98370.41
2022-10-19T10:46:54.040Z,98368.56
2022-10-19T10:49:23.544Z,98370.41
2022-10-19T10:51:55.639Z,98359.97
2022-10-19T10:54:23.031Z,98349.88
2022-10-19T10:57:15.758Z,98340.47
2022-10-19T11:00:11.063Z,98334.50
2022-10-19T11:02:46.571Z,98337.00
2022-10-19T11:05:26.720Z,98335.34
2022-10-19T11:07:59.608Z,98327.53
2022-10-19T11:10:37.430Z,98332.78
2022-10-19T11:13:07.016Z,98335.34
2022-10-19T11:15:52.504Z,98333.59
2022-10-19T11:18:25.958Z,98328.53
2022-10-19T11:21:11.663Z,98324.19
2022-10-19T11:23:50.601Z,98334.50
2022-10-19T11:26:45.435Z,98314.81
2022-10-19T11:29:24.147Z,98318.22
2022-10-19T11:31:54.874Z,98315.66
2022-10-19T11:34:49.496Z,98307.06
2022-10-19T11:37:15.855Z,98301.13
2022-10-19T11:39:51.928Z,98305.34
2022-10-19T11:43:14.103Z,98279.34
2022-10-19T11:45:58.572Z,98298.53
2022-10-19T11:48:27.732Z,98295.13
2022-10-19T11:51:21.856Z,98278.00
2022-10-19T11:54:14.454Z,98280.56
2022-10-19T11:57:08.289Z,98273.72
2022-10-19T11:59:40.064Z,98266.91
2022-10-19T12:02:18.610Z,98268.59
2022-10-19T12:04:51.410Z,98257.19
2022-10-19T12:07:41.103Z,98259.16
2022-10-19T12:10:30.975Z,98242.56
2022-10-19T12:12:59.312Z,98245.16
2022-10-19T12:15:26.192Z,98255.78
2022-10-19T12:17:53.926Z,98258.34
2022-10-19T12:20:26.670Z,98253.22
2022-10-19T12:22:53.169Z,98259.22
2022-10-19T12:25:19.668Z,98251.53
2022-10-19T12:27:47.674Z,98240.22
2022-10-19T12:30:16.020Z,98244.66
2022-10-19T12:33:07.017Z,98238.69
2022-10-19T12:35:39.436Z,98237.81
2022-10-19T12:38:38.743Z,98231.84
2022-10-19T12:41:20.473Z,98230.13
2022-10-19T12:44:02.623Z,98225.81
2022-10-19T12:46:43.111Z,98206.75
2022-10-19T12:49:43.249Z,98219.81
2022-10-19T12:52:09.811Z,98213.00
2022-10-19T12:54:37.807Z,98197.31
2022-10-19T12:57:04.704Z,98195.66
2022-10-19T12:59:32.777Z,98193.81
2022-10-19T13:01:59.419Z,98190.41
2022-10-19T13:04:35.920Z,98199.25
2022-10-19T13:07:08.726Z,98204.47
2022-10-19T13:09:41.972Z,98198.50
2022-10-19T13:12:21.632Z,98218.13
2022-10-19T13:15:02.304Z,98192.47
2022-10-19T13:17:36.465Z,98190.81
2022-10-19T13:20:25.270Z,98195.97
2022-10-19T13:23:00.751Z,98200.19
2022-10-19T13:25:30.831Z,98182.03
2022-10-19T13:28:06.295Z,98179.56
2022-10-19T13:30:38.700Z,98177.97
2022-10-19T13:33:26.396Z,98184.84
2022-10-19T13:36:11.346Z,98187.41
2022-10-19T13:38:41.953Z,98186.53
2022-10-19T13:41:24.053Z,98168.19
2022-10-19T13:44:08.935Z,98184.84
2022-10-19T13:46:44.036Z,98177.03
2022-10-19T13:49:38.299Z,98181.38
2022-10-19T13:52:33.272Z,98183.09
2022-10-19T13:55:47.261Z,98166.59
2022-10-19T13:58:41.329Z,98173.53
2022-10-19T14:01:07.713Z,98173.69
2022-10-19T14:03:55.882Z,98171.97
2022-10-19T14:06:28.489Z,98173.47
2022-10-19T14:09:01.321Z,98182.22
2022-10-19T14:11:31.212Z,98169.41
2022-10-19T14:14:27.672Z,98160.78
2022-10-19T14:17:03.983Z,98170.28
2022-10-19T14:19:48.386Z,98165.94
2022-10-19T14:22:26.180Z,98159.97
2022-10-19T14:24:59.447Z,98162.50
2022-10-19T14:27:25.936Z,98151.34
2022-10-19T14:29:53.315Z,98137.50
2022-10-19T14:32:25.808Z,98159.13
2022-10-19T14:34:52.557Z,98156.28
2022-10-19T14:37:21.314Z,98155.75
2022-10-19T14:40:05.258Z,98148.06
2022-10-19T14:42:44.527Z,98142.81
2022-10-19T14:45:13.853Z,98141.19
2022-10-19T14:48:13.708Z,98143.75
2022-10-19T14:50:47.394Z,98145.47
2022-10-19T14:53:39.395Z,98139.50
2022-10-19T14:56:18.217Z,98141.13
2022-10-19T14:59:15.622Z,98142.06
2022-10-19T15:01:48.646Z,98144.63
2022-10-19T15:04:19.669Z,98129.25
2022-10-19T15:06:46.365Z,98127.44
2022-10-19T15:09:37.889Z,98118.09
2022-10-19T15:12:16.532Z,98131.81
2022-10-19T15:14:43.028Z,98130.94
2022-10-19T15:17:21.439Z,98125.81
2022-10-19T15:19:47.917Z,98103.31
2022-10-19T15:22:14.260Z,98115.53
2022-10-19T15:24:55.512Z,98127.53
2022-10-19T15:27:23.051Z,98119.00
2022-10-19T15:29:56.759Z,98111.91
2022-10-19T15:32:31.982Z,98108.59
2022-10-19T15:34:58.844Z,98118.16
2022-10-19T15:39:56.777Z,98113.03
2022-10-19T15:42:32.172Z,98113.91
2022-10-19T15:44:58.951Z,98101.94
2022-10-19T15:47:25.497Z,98112.13
2022-10-19T15:49:53.227Z,98112.19
2022-10-19T15:52:21.337Z,98097.50
2022-10-19T15:54:48.654Z,98108.78
2022-10-19T15:57:30.639Z,98100.06
2022-10-19T15:59:57.986Z,98106.22
2022-10-19T16:02:25.212Z,98107.06
2022-10-19T16:04:53.243Z,98105.38
2022-10-19T16:07:30.938Z,98101.94
2022-10-19T16:09:57.843Z,98087.97
2022-10-19T16:12:24.835Z,98100.16
2022-10-19T16:14:51.332Z,98106.22
2022-10-19T16:17:18.206Z,98102.75
2022-10-19T16:19:44.910Z,98099.38
2022-10-19T16:22:12.271Z,98107.88
2022-10-19T16:24:38.874Z,98103.66
2022-10-19T16:27:05.589Z,98112.19
2022-10-19T16:29:32.118Z,98106.22
2022-10-19T16:31:58.609Z,98107.88
2022-10-19T16:34:25.191Z,98113.03
2022-10-19T16:36:51.747Z,98114.69
2022-10-19T16:39:18.238Z,98105.22
2022-10-19T16:41:44.721Z,98113.91
2022-10-19T16:44:11.897Z,98110.47
2022-10-19T16:46:38.537Z,98118.16
2022-10-19T16:49:05.058Z,98119.03
2022-10-19T16:51:38.737Z,98127.53
2022-10-19T16:54:06.763Z,98134.41
2022-10-19T16:56:33.354Z,98126.72
2022-10-19T16:59:04.889Z,98136.09
2022-10-19T17:01:32.013Z,98134.41
2022-10-19T17:03:58.613Z,98129.28
2022-10-19T17:06:25.353Z,98127.56
2022-10-19T17:09:29.835Z,98121.59
2022-10-19T17:11:38.795Z,98119.88
2022-10-19T17:14:06.995Z,98119.03
2022-10-19T17:16:34.057Z,98117.28
2022-10-19T17:19:01.409Z,98105.31
2022-10-19T17:21:29.188Z,98106.22
2022-10-19T17:23:58.847Z,98098.50
2022-10-19T17:26:26.827Z,98004.38
2022-10-19T17:28:53.299Z,98100.19
2022-10-19T17:31:19.787Z,98105.28
2022-10-19T17:33:46.274Z,98101.09
2022-10-19T17:36:14.543Z,98101.09
2022-10-19T17:38:41.278Z,98103.59
2022-10-19T17:41:09.819Z,98110.50
2022-10-19T17:43:37.282Z,98112.19
2022-10-19T17:46:05.571Z,98100.25
2022-10-19T17:48:33.096Z,98101.94
2022-10-19T17:51:01.024Z,98095.91
2022-10-19T17:53:27.571Z,98097.69
2022-10-19T17:55:54.216Z,98093.44
2022-10-19T17:58:20.770Z,98092.56
2022-10-19T18:00:47.310Z,98094.22
2022-10-19T18:03:13.819Z,98099.38
2022-10-19T18:05:40.329Z,98096.81
2022-10-19T18:08:06.848Z,98101.94
2022-10-19T18:10:35.318Z,98103.66
2022-10-19T18:13:01.808Z,98105.38
2022-10-19T18:15:28.309Z,98107.88
2022-10-19T18:17:54.801Z,98106.22
2022-10-19T18:20:21.266Z,98098.50
2022-10-19T18:22:48.205Z,98100.19
2022-10-19T18:25:18.792Z,98106.22
2022-10-19T18:27:48.350Z,98107.88
2022-10-19T18:30:14.894Z,98103.66
2022-10-19T18:32:41.428Z,98099.22
2022-10-19T18:35:08.895Z,98103.66
2022-10-19T18:37:35.443Z,98101.88
2022-10-19T18:40:01.934Z,98102.75
2022-10-19T18:42:29.282Z,97982.63
2022-10-19T18:44:55.754Z,98102.75
2022-10-19T18:47:22.279Z,98091.63
2022-10-19T18:49:48.795Z,98089.00
2022-10-19T18:52:15.251Z,98084.75
2022-10-19T18:54:41.757Z,98089.84
2022-10-19T18:57:08.232Z,98086.34
2022-10-19T18:59:34.753Z,98093.34
2022-10-19T19:02:01.254Z,98089.00
2022-10-19T19:04:27.778Z,98095.91
2022-10-19T19:06:54.237Z,98091.56
2022-10-19T19:09:21.173Z,98082.09
2022-10-19T19:11:47.895Z,98080.47
2022-10-19T19:14:16.302Z,98083.88
2022-10-19T19:16:43.181Z,98089.00
2022-10-19T19:19:11.474Z,98076.19
2022-10-19T19:21:38.436Z,98071.84
2022-10-19T19:24:06.008Z,98061.47
2022-10-19T19:26:34.834Z,98074.50
2022-10-19T19:29:01.404Z,98071.88
2022-10-19T19:31:28.124Z,98077.91
2022-10-19T19:33:54.668Z,98078.75
2022-10-19T19:36:21.188Z,98077.03
2022-10-19T19:38:49.006Z,98071.72
2022-10-19T19:41:15.774Z,98077.03
2022-10-19T19:43:42.609Z,98082.16
2022-10-19T19:46:15.037Z,98083.84
2022-10-19T19:48:42.154Z,98070.16
2022-10-19T19:51:10.347Z,98081.31
2022-10-19T19:53:37.242Z,98064.84
2022-10-19T19:56:04.232Z,98080.47
2022-10-19T19:58:30.820Z,98067.53
2022-10-19T20:00:57.341Z,98077.03
2022-10-19T20:03:23.833Z,98068.44
2022-10-19T20:05:50.317Z,98068.50
2022-10-19T20:08:16.832Z,98061.63
2022-10-19T20:10:43.355Z,98068.44
2022-10-19T20:13:09.883Z,98051.19
2022-10-19T20:15:39.232Z,98057.28
2022-10-19T20:18:06.189Z,98071.00
2022-10-19T20:20:32.947Z,98071.00
2022-10-19T20:22:59.444Z,98069.31
2022-10-19T20:25:25.916Z,98074.44
2022-10-19T20:27:52.420Z,98068.44
2022-10-19T20:30:18.979Z,98064.16
2022-10-19T20:32:45.515Z,98068.44
2022-10-19T20:35:11.984Z,98069.31
2022-10-19T20:37:38.614Z,98073.56
2022-10-19T20:40:08.614Z,98070.16
2022-10-19T20:42:35.870Z,98065.03
2022-10-19T20:45:02.695Z,98072.72
2022-10-19T20:47:29.506Z,98063.31
2022-10-19T20:49:56.068Z,98065.03
2022-10-19T20:52:22.613Z,98068.44
2022-10-19T20:54:49.298Z,98064.16
2022-10-19T20:57:15.803Z,98058.06
2022-10-19T20:59:43.923Z,98065.03
2022-10-19T21:02:10.488Z,98052.22
2022-10-19T21:04:37.068Z,98049.66
2022-10-19T21:07:04.942Z,98051.31
2022-10-19T21:09:31.585Z,98043.63
2022-10-19T21:11:58.224Z,98048.75
2022-10-19T21:14:28.359Z,98040.09
2022-10-19T21:16:59.070Z,98053.88
2022-10-19T21:19:26.561Z,98058.13
2022-10-19T21:21:58.024Z,98060.69
2022-10-19T21:24:26.312Z,98067.53
2022-10-19T21:26:52.928Z,98058.94
2022-10-19T21:29:19.498Z,98056.38
2022-10-19T21:31:48.864Z,98046.81
2022-10-19T21:34:23.616Z,98056.38
2022-10-19T21:36:50.146Z,98057.28
2022-10-19T21:39:16.977Z,98058.06
2022-10-19T21:41:43.591Z,98050.38
2022-10-19T21:44:10.209Z,98048.59
2022-10-19T21:46:36.691Z,98045.22
2022-10-19T21:49:03.261Z,98047.78
2022-10-19T21:51:45.387Z,98042.66
2022-10-19T21:54:16.580Z,98042.66
2022-10-19T21:56:43.752Z,98038.44
2022-10-19T21:59:10.491Z,98027.97
2022-10-19T22:01:40.195Z,98034.97
2022-10-19T22:04:11.014Z,98045.22
2022-10-19T22:06:37.564Z,98039.25
2022-10-19T22:09:05.105Z,98037.53
2022-10-19T22:11:31.613Z,98034.94
2022-10-19T22:13:59.280Z,98039.25
2022-10-19T22:16:25.962Z,98038.38
2022-10-19T22:18:52.431Z,98031.47
2022-10-19T22:21:24.038Z,98026.44
2022-10-19T22:23:54.560Z,98023.81
2022-10-19T22:26:23.022Z,98019.44
2022-10-19T22:28:49.579Z,98016.97
2022-10-19T22:31:16.085Z,98009.16
2022-10-19T22:33:42.625Z,98014.38
2022-10-19T22:36:09.674Z,98015.28
2022-10-19T22:38:36.495Z,98005.91
2022-10-19T22:41:03.207Z,97994.78
2022-10-19T22:43:29.716Z,97989.66
2022-10-19T22:45:56.207Z,97991.34
2022-10-19T22:48:22.732Z,97999.03
2022-10-19T22:50:54.277Z,98000.78
2022-10-19T22:53:21.992Z,98004.16
2022-10-19T22:55:48.468Z,98004.13
2022-10-19T22:58:15.106Z,98001.59
2022-10-19T23:00:41.582Z,97984.25
2022-10-19T23:03:08.179Z,97998.19
2022-10-19T23:05:34.687Z,97985.28
2022-10-19T23:08:01.190Z,97979.34
2022-10-19T23:10:27.749Z,97995.63
2022-10-19T23:12:54.491Z,97997.28
2022-10-19T23:15:21.258Z,97995.63
2022-10-19T23:17:47.763Z,97982.78
2022-10-19T23:20:14.330Z,97995.63
2022-10-19T23:22:40.843Z,97986.94
2022-10-19T23:25:08.111Z,97995.63
2022-10-19T23:27:35.071Z,97998.19
2022-10-19T23:30:02.332Z,97999.81
2022-10-19T23:32:28.827Z,97995.53
2022-10-19T23:34:55.312Z,97998.13
2022-10-19T23:37:21.930Z,97996.38
2022-10-19T23:39:48.413Z,97993.84
2022-10-19T23:42:14.924Z,97996.41
2022-10-19T23:44:41.443Z,97992.16
2022-10-19T23:47:07.935Z,97983.50
2022-10-19T23:49:34.414Z,97981.03
2022-10-19T23:52:00.894Z,97986.16
2022-10-19T23:54:27.376Z,97988.72
2022-10-19T23:56:53.843Z,97982.66
2022-10-19T23:59:20.398Z,97972.50
